sensor_id;sensor_type;location;lat;lon;timestamp;P1;durP1;ratioP1;P2;durP2;ratioP2
19854;SDS011;10088;47.946;2.532;2022-07-29T00:02:11;2.30;;;1.70;;
19854;SDS011;10088;47.946;2.532;2022-07-29T00:04:36;3.10;;;1.60;;
19854;SDS011;10088;47.946;2.532;2022-07-29T00:07:02;4.73;;;1.53;;
19854;SDS011;10088;47.946;2.532;2022-07-29T00:09:28;6.70;;;1.77;;
19854;SDS011;10088;47.946;2.532;2022-07-29T00:11:53;2.87;;;1.50;;
19854;SDS011;10088;47.946;2.532;2022-07-29T00:14:20;2.77;;;1.73;;
19854;SDS011;10088;47.946;2.532;2022-07-29T00:16:45;3.73;;;2.10;;
19854;SDS011;10088;47.946;2.532;2022-07-29T00:19:10;1.70;;;1.60;;
19854;SDS011;10088;47.946;2.532;2022-07-29T00:21:35;5.63;;;1.67;;
19854;SDS011;10088;47.946;2.532;2022-07-29T00:24:01;3.67;;;1.87;;
19854;SDS011;10088;47.946;2.532;2022-07-29T00:26:26;6.07;;;1.93;;
19854;SDS011;10088;47.946;2.532;2022-07-29T00:28:56;3.57;;;1.87;;
19854;SDS011;10088;47.946;2.532;2022-07-29T00:31:21;2.47;;;2.27;;
19854;SDS011;10088;47.946;2.532;2022-07-29T00:33:46;2.97;;;1.73;;
19854;SDS011;10088;47.946;2.532;2022-07-29T00:36:12;2.10;;;1.50;;
19854;SDS011;10088;47.946;2.532;2022-07-29T00:38:37;4.07;;;1.67;;
19854;SDS011;10088;47.946;2.532;2022-07-29T00:41:02;2.60;;;1.90;;
19854;SDS011;10088;47.946;2.532;2022-07-29T00:43:28;2.97;;;1.70;;
19854;SDS011;10088;47.946;2.532;2022-07-29T00:45:53;2.63;;;1.77;;
19854;SDS011;10088;47.946;2.532;2022-07-29T00:48:18;4.53;;;1.80;;
19854;SDS011;10088;47.946;2.532;2022-07-29T00:50:43;5.77;;;1.97;;
19854;SDS011;10088;47.946;2.532;2022-07-29T00:53:09;2.27;;;1.80;;
19854;SDS011;10088;47.946;2.532;2022-07-29T00:55:36;1.90;;;1.70;;
19854;SDS011;10088;47.946;2.532;2022-07-29T00:58:02;2.53;;;1.97;;
19854;SDS011;10088;47.946;2.532;2022-07-29T01:00:28;2.30;;;2.07;;
19854;SDS011;10088;47.946;2.532;2022-07-29T01:02:53;2.30;;;2.10;;
19854;SDS011;10088;47.946;2.532;2022-07-29T01:05:20;4.53;;;2.17;;
19854;SDS011;10088;47.946;2.532;2022-07-29T01:07:46;4.20;;;1.97;;
19854;SDS011;10088;47.946;2.532;2022-07-29T01:10:13;2.30;;;2.00;;
19854;SDS011;10088;47.946;2.532;2022-07-29T01:12:39;6.50;;;2.33;;
19854;SDS011;10088;47.946;2.532;2022-07-29T01:15:05;4.30;;;1.60;;
19854;SDS011;10088;47.946;2.532;2022-07-29T01:19:58;3.67;;;2.10;;
19854;SDS011;10088;47.946;2.532;2022-07-29T01:30:26;2.80;;;2.00;;
19854;SDS011;10088;47.946;2.532;2022-07-29T01:32:54;2.23;;;1.80;;
19854;SDS011;10088;47.946;2.532;2022-07-29T01:35:21;2.53;;;1.87;;
19854;SDS011;10088;47.946;2.532;2022-07-29T01:40:24;2.57;;;2.03;;
19854;SDS011;10088;47.946;2.532;2022-07-29T01:42:57;3.53;;;2.13;;
19854;SDS011;10088;47.946;2.532;2022-07-29T01:45:26;2.37;;;2.03;;
19854;SDS011;10088;47.946;2.532;2022-07-29T01:47:56;2.33;;;2.13;;
19854;SDS011;10088;47.946;2.532;2022-07-29T01:50:26;2.33;;;1.97;;
19854;SDS011;10088;47.946;2.532;2022-07-29T01:52:54;3.70;;;2.00;;
19854;SDS011;10088;47.946;2.532;2022-07-29T01:55:22;3.87;;;2.43;;
19854;SDS011;10088;47.946;2.532;2022-07-29T01:57:48;1.90;;;1.80;;
19854;SDS011;10088;47.946;2.532;2022-07-29T02:00:14;2.50;;;1.70;;
19854;SDS011;10088;47.946;2.532;2022-07-29T02:02:41;4.13;;;2.20;;
19854;SDS011;10088;47.946;2.532;2022-07-29T02:05:07;2.80;;;2.03;;
19854;SDS011;10088;47.946;2.532;2022-07-29T02:07:34;4.57;;;2.50;;
19854;SDS011;10088;47.946;2.532;2022-07-29T02:10:02;3.00;;;2.20;;
19854;SDS011;10088;47.946;2.532;2022-07-29T02:12:27;2.90;;;2.50;;
19854;SDS011;10088;47.946;2.532;2022-07-29T02:14:54;3.47;;;2.07;;
19854;SDS011;10088;47.946;2.532;2022-07-29T02:17:25;2.30;;;2.03;;
19854;SDS011;10088;47.946;2.532;2022-07-29T02:19:51;3.17;;;2.53;;
19854;SDS011;10088;47.946;2.532;2022-07-29T02:22:18;4.00;;;2.50;;
19854;SDS011;10088;47.946;2.532;2022-07-29T02:24:44;4.00;;;2.17;;
19854;SDS011;10088;47.946;2.532;2022-07-29T02:27:11;3.37;;;1.97;;
19854;SDS011;10088;47.946;2.532;2022-07-29T02:29:37;4.43;;;2.27;;
19854;SDS011;10088;47.946;2.532;2022-07-29T02:32:04;5.37;;;2.33;;
19854;SDS011;10088;47.946;2.532;2022-07-29T02:34:30;4.70;;;1.87;;
19854;SDS011;10088;47.946;2.532;2022-07-29T02:36:55;3.20;;;2.00;;
19854;SDS011;10088;47.946;2.532;2022-07-29T02:39:21;2.37;;;2.13;;
19854;SDS011;10088;47.946;2.532;2022-07-29T02:41:50;2.50;;;1.73;;
19854;SDS011;10088;47.946;2.532;2022-07-29T02:44:17;2.23;;;2.03;;
19854;SDS011;10088;47.946;2.532;2022-07-29T02:46:54;4.50;;;2.10;;
19854;SDS011;10088;47.946;2.532;2022-07-29T02:49:28;3.23;;;1.83;;
19854;SDS011;10088;47.946;2.532;2022-07-29T02:52:07;3.50;;;2.10;;
19854;SDS011;10088;47.946;2.532;2022-07-29T02:57:00;4.17;;;2.70;;
19854;SDS011;10088;47.946;2.532;2022-07-29T02:59:28;7.07;;;2.33;;
19854;SDS011;10088;47.946;2.532;2022-07-29T03:01:55;3.10;;;2.43;;
19854;SDS011;10088;47.946;2.532;2022-07-29T03:04:22;6.77;;;2.50;;
19854;SDS011;10088;47.946;2.532;2022-07-29T03:06:49;5.43;;;2.50;;
19854;SDS011;10088;47.946;2.532;2022-07-29T03:09:15;2.70;;;2.17;;
19854;SDS011;10088;47.946;2.532;2022-07-29T03:11:42;2.30;;;2.10;;
19854;SDS011;10088;47.946;2.532;2022-07-29T03:14:07;2.77;;;2.10;;
19854;SDS011;10088;47.946;2.532;2022-07-29T03:16:33;2.40;;;2.20;;
19854;SDS011;10088;47.946;2.532;2022-07-29T03:19:01;4.27;;;2.20;;
19854;SDS011;10088;47.946;2.532;2022-07-29T03:21:26;5.57;;;2.20;;
19854;SDS011;10088;47.946;2.532;2022-07-29T03:23:52;2.77;;;1.87;;
19854;SDS011;10088;47.946;2.532;2022-07-29T03:26:17;6.13;;;1.90;;
19854;SDS011;10088;47.946;2.532;2022-07-29T03:28:43;2.87;;;2.07;;
19854;SDS011;10088;47.946;2.532;2022-07-29T03:31:09;3.47;;;2.20;;
19854;SDS011;10088;47.946;2.532;2022-07-29T03:33:34;7.73;;;2.37;;
19854;SDS011;10088;47.946;2.532;2022-07-29T03:35:59;2.20;;;2.00;;
19854;SDS011;10088;47.946;2.532;2022-07-29T03:38:27;3.10;;;2.00;;
19854;SDS011;10088;47.946;2.532;2022-07-29T03:40:56;3.50;;;2.40;;
19854;SDS011;10088;47.946;2.532;2022-07-29T03:43:21;3.30;;;2.30;;
19854;SDS011;10088;47.946;2.532;2022-07-29T03:45:48;5.07;;;2.17;;
19854;SDS011;10088;47.946;2.532;2022-07-29T03:48:15;5.93;;;2.60;;
19854;SDS011;10088;47.946;2.532;2022-07-29T03:50:41;4.10;;;2.63;;
19854;SDS011;10088;47.946;2.532;2022-07-29T03:53:06;4.97;;;2.00;;
19854;SDS011;10088;47.946;2.532;2022-07-29T03:55:33;2.47;;;2.20;;
19854;SDS011;10088;47.946;2.532;2022-07-29T03:58:01;2.30;;;2.10;;
19854;SDS011;10088;47.946;2.532;2022-07-29T04:00:27;2.30;;;2.10;;
19854;SDS011;10088;47.946;2.532;2022-07-29T04:02:52;2.93;;;1.80;;
19854;SDS011;10088;47.946;2.532;2022-07-29T04:05:18;2.90;;;2.00;;
19854;SDS011;10088;47.946;2.532;2022-07-29T04:07:43;2.50;;;2.00;;
19854;SDS011;10088;47.946;2.532;2022-07-29T04:10:09;7.00;;;2.10;;
19854;SDS011;10088;47.946;2.532;2022-07-29T04:12:34;3.73;;;1.90;;
19854;SDS011;10088;47.946;2.532;2022-07-29T04:15:00;2.77;;;2.00;;
19854;SDS011;10088;47.946;2.532;2022-07-29T04:17:26;4.13;;;2.27;;
19854;SDS011;10088;47.946;2.532;2022-07-29T04:19:51;4.97;;;2.17;;
19854;SDS011;10088;47.946;2.532;2022-07-29T04:22:16;2.10;;;1.90;;
19854;SDS011;10088;47.946;2.532;2022-07-29T04:24:42;2.17;;;1.73;;
19854;SDS011;10088;47.946;2.532;2022-07-29T04:27:07;4.17;;;2.17;;
19854;SDS011;10088;47.946;2.532;2022-07-29T04:29:32;5.50;;;2.13;;
19854;SDS011;10088;47.946;2.532;2022-07-29T04:31:57;2.73;;;2.03;;
19854;SDS011;10088;47.946;2.532;2022-07-29T04:34:23;6.30;;;2.00;;
19854;SDS011;10088;47.946;2.532;2022-07-29T04:36:48;4.73;;;1.77;;
19854;SDS011;10088;47.946;2.532;2022-07-29T04:39:13;4.00;;;2.10;;
19854;SDS011;10088;47.946;2.532;2022-07-29T04:41:39;4.00;;;2.20;;
19854;SDS011;10088;47.946;2.532;2022-07-29T04:44:05;3.43;;;1.90;;
19854;SDS011;10088;47.946;2.532;2022-07-29T04:46:30;4.87;;;2.33;;
19854;SDS011;10088;47.946;2.532;2022-07-29T04:48:55;2.67;;;1.87;;
19854;SDS011;10088;47.946;2.532;2022-07-29T04:51:21;2.57;;;2.00;;
19854;SDS011;10088;47.946;2.532;2022-07-29T04:53:46;2.80;;;1.90;;
19854;SDS011;10088;47.946;2.532;2022-07-29T04:56:11;4.63;;;2.20;;
19854;SDS011;10088;47.946;2.532;2022-07-29T04:58:37;2.30;;;2.10;;
19854;SDS011;10088;47.946;2.532;2022-07-29T05:01:02;1.80;;;1.53;;
19854;SDS011;10088;47.946;2.532;2022-07-29T05:03:27;3.40;;;2.10;;
19854;SDS011;10088;47.946;2.532;2022-07-29T05:05:53;5.17;;;2.50;;
19854;SDS011;10088;47.946;2.532;2022-07-29T05:08:18;4.27;;;1.73;;
19854;SDS011;10088;47.946;2.532;2022-07-29T05:10:44;3.37;;;2.07;;
19854;SDS011;10088;47.946;2.532;2022-07-29T05:13:10;2.60;;;1.97;;
19854;SDS011;10088;47.946;2.532;2022-07-29T05:15:35;3.37;;;2.37;;
19854;SDS011;10088;47.946;2.532;2022-07-29T05:18:01;4.30;;;2.27;;
19854;SDS011;10088;47.946;2.532;2022-07-29T05:20:26;2.20;;;2.00;;
19854;SDS011;10088;47.946;2.532;2022-07-29T05:22:54;2.27;;;2.00;;
19854;SDS011;10088;47.946;2.532;2022-07-29T05:25:19;2.60;;;2.20;;
19854;SDS011;10088;47.946;2.532;2022-07-29T05:27:48;2.47;;;2.27;;
19854;SDS011;10088;47.946;2.532;2022-07-29T05:30:15;2.93;;;2.20;;
19854;SDS011;10088;47.946;2.532;2022-07-29T05:32:40;6.20;;;2.10;;
19854;SDS011;10088;47.946;2.532;2022-07-29T05:35:06;8.83;;;2.40;;
19854;SDS011;10088;47.946;2.532;2022-07-29T05:37:31;4.00;;;2.30;;
19854;SDS011;10088;47.946;2.532;2022-07-29T05:39:56;4.10;;;2.30;;
19854;SDS011;10088;47.946;2.532;2022-07-29T05:42:21;4.27;;;2.07;;
19854;SDS011;10088;47.946;2.532;2022-07-29T05:44:47;4.07;;;2.03;;
19854;SDS011;10088;47.946;2.532;2022-07-29T05:47:12;3.10;;;2.23;;
19854;SDS011;10088;47.946;2.532;2022-07-29T05:49:38;2.40;;;2.20;;
19854;SDS011;10088;47.946;2.532;2022-07-29T05:52:03;4.63;;;2.20;;
19854;SDS011;10088;47.946;2.532;2022-07-29T05:54:29;5.73;;;2.20;;
19854;SDS011;10088;47.946;2.532;2022-07-29T05:56:54;4.77;;;2.20;;
19854;SDS011;10088;47.946;2.532;2022-07-29T05:59:19;4.30;;;2.20;;
19854;SDS011;10088;47.946;2.532;2022-07-29T06:01:45;6.07;;;2.07;;
19854;SDS011;10088;47.946;2.532;2022-07-29T06:04:10;4.90;;;2.13;;
19854;SDS011;10088;47.946;2.532;2022-07-29T06:06:35;3.27;;;1.97;;
19854;SDS011;10088;47.946;2.532;2022-07-29T06:09:01;3.30;;;2.10;;
19854;SDS011;10088;47.946;2.532;2022-07-29T06:11:26;2.83;;;1.80;;
19854;SDS011;10088;47.946;2.532;2022-07-29T06:13:52;4.83;;;2.00;;
19854;SDS011;10088;47.946;2.532;2022-07-29T06:16:18;2.70;;;2.00;;
19854;SDS011;10088;47.946;2.532;2022-07-29T06:18:43;4.47;;;2.17;;
19854;SDS011;10088;47.946;2.532;2022-07-29T06:21:09;4.73;;;1.90;;
19854;SDS011;10088;47.946;2.532;2022-07-29T06:23:35;4.83;;;2.00;;
19854;SDS011;10088;47.946;2.532;2022-07-29T06:26:00;3.53;;;2.20;;
19854;SDS011;10088;47.946;2.532;2022-07-29T06:28:25;4.33;;;1.90;;
19854;SDS011;10088;47.946;2.532;2022-07-29T06:30:51;3.70;;;1.73;;
19854;SDS011;10088;47.946;2.532;2022-07-29T06:33:17;2.20;;;1.70;;
19854;SDS011;10088;47.946;2.532;2022-07-29T06:35:43;2.23;;;1.90;;
19854;SDS011;10088;47.946;2.532;2022-07-29T06:38:09;3.77;;;1.80;;
19854;SDS011;10088;47.946;2.532;2022-07-29T06:40:36;3.17;;;1.80;;
19854;SDS011;10088;47.946;2.532;2022-07-29T06:43:20;4.07;;;1.60;;
19854;SDS011;10088;47.946;2.532;2022-07-29T06:45:45;6.97;;;1.80;;
19854;SDS011;10088;47.946;2.532;2022-07-29T06:48:11;4.93;;;1.53;;
19854;SDS011;10088;47.946;2.532;2022-07-29T06:50:36;2.97;;;1.27;;
19854;SDS011;10088;47.946;2.532;2022-07-29T06:53:02;3.43;;;1.60;;
19854;SDS011;10088;47.946;2.532;2022-07-29T06:55:27;5.13;;;1.83;;
19854;SDS011;10088;47.946;2.532;2022-07-29T06:57:52;1.80;;;1.30;;
19854;SDS011;10088;47.946;2.532;2022-07-29T07:00:17;5.50;;;1.70;;
19854;SDS011;10088;47.946;2.532;2022-07-29T07:02:43;4.23;;;1.50;;
19854;SDS011;10088;47.946;2.532;2022-07-29T07:05:08;3.30;;;1.30;;
19854;SDS011;10088;47.946;2.532;2022-07-29T07:07:33;3.43;;;1.60;;
19854;SDS011;10088;47.946;2.532;2022-07-29T07:09:59;3.03;;;1.30;;
19854;SDS011;10088;47.946;2.532;2022-07-29T07:12:24;2.87;;;1.07;;
19854;SDS011;10088;47.946;2.532;2022-07-29T07:14:50;3.70;;;1.23;;
19854;SDS011;10088;47.946;2.532;2022-07-29T07:17:15;2.40;;;1.30;;
19854;SDS011;10088;47.946;2.532;2022-07-29T07:19:40;5.13;;;1.10;;
19854;SDS011;10088;47.946;2.532;2022-07-29T07:22:06;3.23;;;1.20;;
19854;SDS011;10088;47.946;2.532;2022-07-29T07:24:31;6.50;;;1.23;;
19854;SDS011;10088;47.946;2.532;2022-07-29T07:26:56;2.17;;;1.10;;
19854;SDS011;10088;47.946;2.532;2022-07-29T07:29:22;2.70;;;1.13;;
19854;SDS011;10088;47.946;2.532;2022-07-29T07:31:47;3.50;;;1.20;;
19854;SDS011;10088;47.946;2.532;2022-07-29T07:34:12;6.00;;;1.40;;
19854;SDS011;10088;47.946;2.532;2022-07-29T07:36:37;2.70;;;1.50;;
19854;SDS011;10088;47.946;2.532;2022-07-29T07:39:03;3.27;;;1.10;;
19854;SDS011;10088;47.946;2.532;2022-07-29T07:41:30;5.43;;;1.57;;
19854;SDS011;10088;47.946;2.532;2022-07-29T07:43:55;2.33;;;0.87;;
19854;SDS011;10088;47.946;2.532;2022-07-29T07:46:21;9.53;;;1.27;;
19854;SDS011;10088;47.946;2.532;2022-07-29T07:48:46;4.87;;;1.40;;
19854;SDS011;10088;47.946;2.532;2022-07-29T07:51:11;5.03;;;1.30;;
19854;SDS011;10088;47.946;2.532;2022-07-29T07:53:36;2.40;;;1.37;;
19854;SDS011;10088;47.946;2.532;2022-07-29T07:56:01;4.77;;;1.40;;
19854;SDS011;10088;47.946;2.532;2022-07-29T07:58:27;4.93;;;1.40;;
19854;SDS011;10088;47.946;2.532;2022-07-29T08:00:52;5.23;;;1.20;;
19854;SDS011;10088;47.946;2.532;2022-07-29T08:03:18;3.50;;;1.40;;
19854;SDS011;10088;47.946;2.532;2022-07-29T08:05:43;2.73;;;1.53;;
19854;SDS011;10088;47.946;2.532;2022-07-29T08:08:08;3.90;;;1.27;;
19854;SDS011;10088;47.946;2.532;2022-07-29T08:10:34;3.60;;;1.43;;
19854;SDS011;10088;47.946;2.532;2022-07-29T08:13:18;4.23;;;1.17;;
19854;SDS011;10088;47.946;2.532;2022-07-29T08:15:43;4.10;;;1.00;;
19854;SDS011;10088;47.946;2.532;2022-07-29T08:18:10;1.50;;;0.90;;
19854;SDS011;10088;47.946;2.532;2022-07-29T08:20:36;2.90;;;1.00;;
19854;SDS011;10088;47.946;2.532;2022-07-29T08:23:03;3.70;;;0.90;;
19854;SDS011;10088;47.946;2.532;2022-07-29T08:25:29;2.73;;;1.00;;
19854;SDS011;10088;47.946;2.532;2022-07-29T08:27:54;4.83;;;1.20;;
19854;SDS011;10088;47.946;2.532;2022-07-29T08:30:20;3.73;;;1.10;;
19854;SDS011;10088;47.946;2.532;2022-07-29T08:32:45;2.20;;;1.13;;
19854;SDS011;10088;47.946;2.532;2022-07-29T08:35:12;5.27;;;1.10;;
19854;SDS011;10088;47.946;2.532;2022-07-29T08:37:37;6.27;;;1.17;;
19854;SDS011;10088;47.946;2.532;2022-07-29T08:40:03;2.00;;;1.20;;
19854;SDS011;10088;47.946;2.532;2022-07-29T08:42:28;3.00;;;1.03;;
19854;SDS011;10088;47.946;2.532;2022-07-29T08:44:54;2.10;;;1.00;;
19854;SDS011;10088;47.946;2.532;2022-07-29T08:47:19;1.17;;;0.90;;
19854;SDS011;10088;47.946;2.532;2022-07-29T08:49:45;2.80;;;1.00;;
19854;SDS011;10088;47.946;2.532;2022-07-29T08:52:12;2.80;;;0.83;;
19854;SDS011;10088;47.946;2.532;2022-07-29T08:54:43;2.37;;;1.00;;
19854;SDS011;10088;47.946;2.532;2022-07-29T08:57:09;2.90;;;0.87;;
19854;SDS011;10088;47.946;2.532;2022-07-29T08:59:34;3.60;;;0.90;;
19854;SDS011;10088;47.946;2.532;2022-07-29T09:01:59;2.27;;;0.90;;
19854;SDS011;10088;47.946;2.532;2022-07-29T09:04:27;3.77;;;1.13;;
19854;SDS011;10088;47.946;2.532;2022-07-29T09:06:54;4.43;;;0.80;;
19854;SDS011;10088;47.946;2.532;2022-07-29T09:09:21;3.17;;;0.90;;
19854;SDS011;10088;47.946;2.532;2022-07-29T09:11:47;2.23;;;0.90;;
19854;SDS011;10088;47.946;2.532;2022-07-29T09:14:13;1.07;;;0.97;;
19854;SDS011;10088;47.946;2.532;2022-07-29T09:16:49;4.22;;;1.13;;
19854;SDS011;10088;47.946;2.532;2022-07-29T09:19:36;5.40;;;0.90;;
19854;SDS011;10088;47.946;2.532;2022-07-29T09:22:00;2.75;;;0.80;;
19854;SDS011;10088;47.946;2.532;2022-07-29T09:24:27;1.95;;;0.70;;
19854;SDS011;10088;47.946;2.532;2022-07-29T09:27:00;3.10;;;0.88;;
19854;SDS011;10088;47.946;2.532;2022-07-29T09:29:26;1.35;;;1.10;;
19854;SDS011;10088;47.946;2.532;2022-07-29T09:31:53;3.40;;;1.38;;
19854;SDS011;10088;47.946;2.532;2022-07-29T09:34:23;5.20;;;1.25;;
19854;SDS011;10088;47.946;2.532;2022-07-29T09:36:49;1.27;;;0.85;;
19854;SDS011;10088;47.946;2.532;2022-07-29T09:39:15;1.77;;;0.75;;
19854;SDS011;10088;47.946;2.532;2022-07-29T09:41:53;3.08;;;0.82;;
19854;SDS011;10088;47.946;2.532;2022-07-29T09:44:19;1.95;;;1.08;;
19854;SDS011;10088;47.946;2.532;2022-07-29T09:46:54;4.67;;;0.73;;
19854;SDS011;10088;47.946;2.532;2022-07-29T09:49:20;1.90;;;0.70;;
19854;SDS011;10088;47.946;2.532;2022-07-29T09:51:45;2.23;;;0.90;;
19854;SDS011;10088;47.946;2.532;2022-07-29T09:54:26;2.60;;;0.80;;
19854;SDS011;10088;47.946;2.532;2022-07-29T09:56:52;1.50;;;1.10;;
19854;SDS011;10088;47.946;2.532;2022-07-29T09:59:18;1.80;;;1.00;;
19854;SDS011;10088;47.946;2.532;2022-07-29T10:01:45;3.10;;;0.70;;
19854;SDS011;10088;47.946;2.532;2022-07-29T10:04:11;2.00;;;0.88;;
19854;SDS011;10088;47.946;2.532;2022-07-29T10:06:40;1.85;;;0.80;;
19854;SDS011;10088;47.946;2.532;2022-07-29T10:09:19;4.50;;;1.00;;
19854;SDS011;10088;47.946;2.532;2022-07-29T10:11:50;1.77;;;0.90;;
19854;SDS011;10088;47.946;2.532;2022-07-29T10:14:27;2.40;;;0.88;;
19854;SDS011;10088;47.946;2.532;2022-07-29T10:16:53;3.30;;;0.97;;
19854;SDS011;10088;47.946;2.532;2022-07-29T10:19:18;1.80;;;0.80;;
19854;SDS011;10088;47.946;2.532;2022-07-29T10:21:44;3.27;;;1.03;;
19854;SDS011;10088;47.946;2.532;2022-07-29T10:24:09;5.20;;;0.90;;
19854;SDS011;10088;47.946;2.532;2022-07-29T10:26:35;1.27;;;0.80;;
19854;SDS011;10088;47.946;2.532;2022-07-29T10:29:02;3.03;;;0.90;;
19854;SDS011;10088;47.946;2.532;2022-07-29T10:31:35;2.33;;;0.77;;
19854;SDS011;10088;47.946;2.532;2022-07-29T10:34:07;1.63;;;0.80;;
19854;SDS011;10088;47.946;2.532;2022-07-29T10:39:19;2.50;;;0.73;;
19854;SDS011;10088;47.946;2.532;2022-07-29T10:44:19;4.88;;;1.00;;
19854;SDS011;10088;47.946;2.532;2022-07-29T10:46:45;1.43;;;1.00;;
19854;SDS011;10088;47.946;2.532;2022-07-29T10:51:52;3.63;;;1.10;;
19854;SDS011;10088;47.946;2.532;2022-07-29T10:54:40;2.63;;;0.77;;
19854;SDS011;10088;47.946;2.532;2022-07-29T11:00:30;3.53;;;0.90;;
19854;SDS011;10088;47.946;2.532;2022-07-29T11:05:02;1.37;;;0.83;;
19854;SDS011;10088;47.946;2.532;2022-07-29T11:07:28;1.97;;;1.03;;
19854;SDS011;10088;47.946;2.532;2022-07-29T11:15:11;4.47;;;1.10;;
19854;SDS011;10088;47.946;2.532;2022-07-29T11:22:56;2.33;;;0.77;;
19854;SDS011;10088;47.946;2.532;2022-07-29T11:25:21;3.17;;;1.00;;
19854;SDS011;10088;47.946;2.532;2022-07-29T11:27:46;5.97;;;1.10;;
19854;SDS011;10088;47.946;2.532;2022-07-29T11:30:12;2.23;;;0.83;;
19854;SDS011;10088;47.946;2.532;2022-07-29T11:32:41;1.70;;;0.83;;
19854;SDS011;10088;47.946;2.532;2022-07-29T11:37:35;2.10;;;1.10;;
19854;SDS011;10088;47.946;2.532;2022-07-29T11:44:57;1.83;;;1.07;;
19854;SDS011;10088;47.946;2.532;2022-07-29T11:47:23;2.80;;;1.10;;
19854;SDS011;10088;47.946;2.532;2022-07-29T11:49:52;3.10;;;0.90;;
19854;SDS011;10088;47.946;2.532;2022-07-29T11:52:18;1.50;;;0.73;;
19854;SDS011;10088;47.946;2.532;2022-07-29T11:54:44;2.77;;;1.10;;
19854;SDS011;10088;47.946;2.532;2022-07-29T11:57:10;1.57;;;0.70;;
19854;SDS011;10088;47.946;2.532;2022-07-29T11:59:39;1.27;;;0.83;;
19854;SDS011;10088;47.946;2.532;2022-07-29T12:02:04;6.47;;;0.90;;
19854;SDS011;10088;47.946;2.532;2022-07-29T12:04:30;3.17;;;0.80;;
19854;SDS011;10088;47.946;2.532;2022-07-29T12:06:55;3.13;;;0.80;;
19854;SDS011;10088;47.946;2.532;2022-07-29T12:09:21;2.87;;;0.90;;
19854;SDS011;10088;47.946;2.532;2022-07-29T12:11:47;3.40;;;0.90;;
19854;SDS011;10088;47.946;2.532;2022-07-29T12:14:30;2.90;;;1.20;;
19854;SDS011;10088;47.946;2.532;2022-07-29T12:16:56;1.87;;;0.73;;
19854;SDS011;10088;47.946;2.532;2022-07-29T12:19:21;3.77;;;0.90;;
19854;SDS011;10088;47.946;2.532;2022-07-29T12:21:47;3.67;;;0.70;;
19854;SDS011;10088;47.946;2.532;2022-07-29T12:24:13;1.67;;;0.93;;
19854;SDS011;10088;47.946;2.532;2022-07-29T12:26:51;1.50;;;0.77;;
19854;SDS011;10088;47.946;2.532;2022-07-29T12:29:17;2.72;;;0.73;;
19854;SDS011;10088;47.946;2.532;2022-07-29T12:31:42;2.28;;;0.80;;
19854;SDS011;10088;47.946;2.532;2022-07-29T12:34:09;4.80;;;1.02;;
19854;SDS011;10088;47.946;2.532;2022-07-29T12:36:34;2.50;;;0.85;;
19854;SDS011;10088;47.946;2.532;2022-07-29T12:38:59;3.28;;;0.90;;
19854;SDS011;10088;47.946;2.532;2022-07-29T12:41:27;3.88;;;1.08;;
19854;SDS011;10088;47.946;2.532;2022-07-29T12:43:55;2.45;;;1.10;;
19854;SDS011;10088;47.946;2.532;2022-07-29T12:46:21;2.60;;;1.00;;
19854;SDS011;10088;47.946;2.532;2022-07-29T12:48:49;3.55;;;1.00;;
19854;SDS011;10088;47.946;2.532;2022-07-29T12:51:14;2.13;;;0.80;;
19854;SDS011;10088;47.946;2.532;2022-07-29T12:53:41;4.40;;;1.00;;
19854;SDS011;10088;47.946;2.532;2022-07-29T12:56:26;2.95;;;0.90;;
19854;SDS011;10088;47.946;2.532;2022-07-29T12:58:51;1.55;;;0.80;;
19854;SDS011;10088;47.946;2.532;2022-07-29T13:01:17;5.45;;;0.75;;
19854;SDS011;10088;47.946;2.532;2022-07-29T13:06:26;2.42;;;0.80;;
19854;SDS011;10088;47.946;2.532;2022-07-29T13:08:59;4.78;;;0.90;;
19854;SDS011;10088;47.946;2.532;2022-07-29T13:11:32;2.10;;;0.90;;
19854;SDS011;10088;47.946;2.532;2022-07-29T13:13:57;4.50;;;1.00;;
19854;SDS011;10088;47.946;2.532;2022-07-29T13:16:23;1.58;;;0.80;;
19854;SDS011;10088;47.946;2.532;2022-07-29T13:18:48;3.90;;;0.90;;
19854;SDS011;10088;47.946;2.532;2022-07-29T13:21:27;1.83;;;0.80;;
19854;SDS011;10088;47.946;2.532;2022-07-29T13:23:52;5.22;;;0.85;;
19854;SDS011;10088;47.946;2.532;2022-07-29T13:26:18;2.15;;;0.70;;
19854;SDS011;10088;47.946;2.532;2022-07-29T13:28:44;1.23;;;0.80;;
19854;SDS011;10088;47.946;2.532;2022-07-29T13:31:10;1.50;;;1.00;;
19854;SDS011;10088;47.946;2.532;2022-07-29T13:33:35;1.83;;;0.80;;
19854;SDS011;10088;47.946;2.532;2022-07-29T13:36:00;2.60;;;0.87;;
19854;SDS011;10088;47.946;2.532;2022-07-29T13:38:26;1.13;;;0.70;;
19854;SDS011;10088;47.946;2.532;2022-07-29T13:40:52;1.40;;;0.70;;
19854;SDS011;10088;47.946;2.532;2022-07-29T13:43:17;1.67;;;0.87;;
19854;SDS011;10088;47.946;2.532;2022-07-29T13:45:42;2.10;;;0.90;;
19854;SDS011;10088;47.946;2.532;2022-07-29T13:48:08;5.13;;;1.00;;
19854;SDS011;10088;47.946;2.532;2022-07-29T13:50:33;4.33;;;1.33;;
19854;SDS011;10088;47.946;2.532;2022-07-29T13:52:58;6.20;;;1.07;;
19854;SDS011;10088;47.946;2.532;2022-07-29T13:55:24;3.10;;;0.97;;
19854;SDS011;10088;47.946;2.532;2022-07-29T13:57:49;4.13;;;0.80;;
19854;SDS011;10088;47.946;2.532;2022-07-29T14:00:14;4.30;;;0.73;;
19854;SDS011;10088;47.946;2.532;2022-07-29T14:02:41;3.08;;;0.70;;
19854;SDS011;10088;47.946;2.532;2022-07-29T14:05:06;4.30;;;0.83;;
19854;SDS011;10088;47.946;2.532;2022-07-29T14:07:31;6.03;;;1.13;;
19854;SDS011;10088;47.946;2.532;2022-07-29T14:09:57;3.20;;;0.90;;
19854;SDS011;10088;47.946;2.532;2022-07-29T14:12:22;3.47;;;1.33;;
19854;SDS011;10088;47.946;2.532;2022-07-29T14:14:48;0.93;;;0.70;;
19854;SDS011;10088;47.946;2.532;2022-07-29T14:17:13;3.30;;;1.00;;
19854;SDS011;10088;47.946;2.532;2022-07-29T14:19:39;2.70;;;0.70;;
19854;SDS011;10088;47.946;2.532;2022-07-29T14:22:04;6.63;;;1.20;;
19854;SDS011;10088;47.946;2.532;2022-07-29T14:24:30;4.63;;;0.90;;
19854;SDS011;10088;47.946;2.532;2022-07-29T14:26:56;2.87;;;0.80;;
19854;SDS011;10088;47.946;2.532;2022-07-29T14:29:21;3.07;;;0.83;;
19854;SDS011;10088;47.946;2.532;2022-07-29T14:31:46;2.03;;;1.00;;
19854;SDS011;10088;47.946;2.532;2022-07-29T14:34:12;2.10;;;0.93;;
19854;SDS011;10088;47.946;2.532;2022-07-29T14:36:37;4.53;;;0.93;;
19854;SDS011;10088;47.946;2.532;2022-07-29T14:39:02;2.03;;;0.90;;
19854;SDS011;10088;47.946;2.532;2022-07-29T14:41:28;4.40;;;0.97;;
19854;SDS011;10088;47.946;2.532;2022-07-29T14:43:54;4.70;;;1.27;;
19854;SDS011;10088;47.946;2.532;2022-07-29T14:46:19;1.43;;;1.00;;
19854;SDS011;10088;47.946;2.532;2022-07-29T14:48:45;2.90;;;0.90;;
19854;SDS011;10088;47.946;2.532;2022-07-29T14:51:10;1.63;;;0.80;;
19854;SDS011;10088;47.946;2.532;2022-07-29T14:53:35;1.87;;;0.80;;
19854;SDS011;10088;47.946;2.532;2022-07-29T14:56:01;3.27;;;0.77;;
19854;SDS011;10088;47.946;2.532;2022-07-29T14:58:26;2.07;;;1.10;;
19854;SDS011;10088;47.946;2.532;2022-07-29T15:00:51;3.07;;;0.80;;
19854;SDS011;10088;47.946;2.532;2022-07-29T15:03:17;2.27;;;1.17;;
19854;SDS011;10088;47.946;2.532;2022-07-29T15:05:42;3.53;;;0.97;;
19854;SDS011;10088;47.946;2.532;2022-07-29T15:08:08;2.27;;;0.80;;
19854;SDS011;10088;47.946;2.532;2022-07-29T15:10:33;3.33;;;0.60;;
19854;SDS011;10088;47.946;2.532;2022-07-29T15:12:58;2.77;;;0.80;;
19854;SDS011;10088;47.946;2.532;2022-07-29T15:15:24;1.27;;;0.70;;
19854;SDS011;10088;47.946;2.532;2022-07-29T15:17:49;9.23;;;1.03;;
19854;SDS011;10088;47.946;2.532;2022-07-29T15:20:14;1.57;;;0.90;;
19854;SDS011;10088;47.946;2.532;2022-07-29T15:22:39;3.50;;;0.70;;
19854;SDS011;10088;47.946;2.532;2022-07-29T15:25:07;1.93;;;1.10;;
19854;SDS011;10088;47.946;2.532;2022-07-29T15:27:32;3.35;;;0.80;;
19854;SDS011;10088;47.946;2.532;2022-07-29T15:29:57;6.73;;;0.90;;
19854;SDS011;10088;47.946;2.532;2022-07-29T15:32:23;2.20;;;0.60;;
19854;SDS011;10088;47.946;2.532;2022-07-29T15:34:48;4.30;;;0.77;;